Time;durP1;ratioP1;P1;durP2;ratioP2;P2;SDS_P1;SDS_P2;PMS_P1;PMS_P2;Temp;Humidity;BMP_temperature;BMP_pressure;BME280_temperature;BME280_humidity;BME280_pressure;Samples;Min_cycle;Max_cycle;Signal;HPM_P1;HPM_P2
2021/01/28 00:00:47;;;;;;;8.80;5.15;;;;;;;10.33;88.40;100715.25;5044420;28;20060;-72
2021/01/28 00:03:15;;;;;;;10.48;5.50;;;;;;;10.48;88.14;100710.19;5066490;28;20044;-72
2021/01/28 00:05:44;;;;;;;9.52;5.90;;;;;;;10.56;87.33;100722.41;5063211;28;20063;-71
2021/01/28 00:08:12;;;;;;;10.98;7.20;;;;;;;10.65;87.76;100715.03;5055170;28;20052;-69
2021/01/28 00:11:02;;;;;;;11.48;8.20;;;;;;;10.60;87.57;100717.91;5072694;28;20056;-72
2021/01/28 00:13:38;;;;;;;13.38;9.38;;;;;;;10.43;88.45;100707.56;5057812;28;20052;-72
2021/01/28 00:16:16;;;;;;;13.45;9.30;;;;;;;10.67;87.42;100713.56;5040868;28;20060;-70
2021/01/28 00:18:51;;;;;;;13.80;9.45;;;;;;;10.57;87.82;100699.25;5057817;28;20499;-72
2021/01/28 00:21:27;;;;;;;11.75;8.13;;;;;;;10.65;87.64;100699.28;5057199;28;20056;-71
2021/01/28 00:23:54;;;;;;;11.60;8.20;;;;;;;10.51;88.60;100676.53;5075044;28;20051;-70
2021/01/28 00:26:28;;;;;;;12.38;8.05;;;;;;;10.62;88.53;100669.63;5024740;28;20041;-72
2021/01/28 00:28:55;;;;;;;20.17;13.20;;;;;;;10.53;88.77;100666.00;5032900;28;20049;-71
2021/01/28 00:31:22;;;;;;;39.50;25.88;;;;;;;10.56;88.49;100662.66;5073841;28;20111;-70
2021/01/28 00:33:49;;;;;;;86.95;56.67;;;;;;;10.51;88.81;100662.78;5073057;28;20048;-70
2021/01/28 00:36:16;;;;;;;14.93;10.65;;;;;;;10.35;89.67;100657.94;5074157;28;20052;-72
2021/01/28 00:38:43;;;;;;;22.27;14.18;;;;;;;10.42;90.25;100650.06;5056851;28;20115;-69
2021/01/28 00:41:27;;;;;;;18.98;13.30;;;;;;;10.53;89.53;100640.44;5048995;28;20483;-75
2021/01/28 00:43:54;;;;;;;12.68;8.93;;;;;;;10.50;89.16;100633.59;5039552;28;20536;-73
2021/01/28 00:46:21;;;;;;;9.50;6.70;;;;;;;10.53;89.37;100632.16;5075168;28;20403;-70
2021/01/28 00:48:49;;;;;;;9.82;5.68;;;;;;;10.46;89.83;100631.78;5074489;28;20045;-73
2021/01/28 00:51:16;;;;;;;9.02;5.28;;;;;;;10.45;90.22;100622.72;5056450;28;20043;-72
2021/01/28 00:53:43;;;;;;;7.88;4.68;;;;;;;10.61;89.78;100618.44;5056422;28;20053;-73
2021/01/28 00:56:10;;;;;;;8.23;3.72;;;;;;;10.48;90.40;100596.50;5039694;28;20049;-73
2021/01/28 00:58:50;;;;;;;6.53;4.07;;;;;;;10.78;89.27;100598.41;5052690;28;20399;-71
2021/01/28 01:01:21;;;;;;;5.75;2.90;;;;;;;10.56;88.61;100588.28;5051950;28;20041;-72
2021/01/28 01:03:52;;;;;;;4.20;2.10;;;;;;;10.57;89.54;100583.56;5057243;28;20060;-73
2021/01/28 01:06:19;;;;;;;3.90;2.08;;;;;;;10.82;88.67;100564.41;5075699;28;20067;-73
2021/01/28 01:08:47;;;;;;;4.80;2.70;;;;;;;10.69;88.69;100564.50;5051513;28;20044;-73
2021/01/28 01:11:22;;;;;;;4.53;2.45;;;;;;;10.74;88.97;100572.66;5061991;28;20048;-73
2021/01/28 01:13:53;;;;;;;6.03;2.20;;;;;;;10.81;87.92;100576.53;5036775;28;20052;-73
2021/01/28 01:16:30;;;;;;;3.22;1.88;;;;;;;10.69;88.68;100564.50;5032847;28;20040;-73
2021/01/28 01:19:04;;;;;;;3.65;1.95;;;;;;;10.73;88.62;100562.75;5027510;28;20055;-73
2021/01/28 01:22:01;;;;;;;3.10;1.77;;;;;;;10.71;88.49;100549.28;5064684;28;20060;-73
2021/01/28 01:24:30;;;;;;;3.15;1.50;;;;;;;10.67;88.50;100542.00;5037514;28;20495;-73
2021/01/28 01:27:01;;;;;;;5.38;1.70;;;;;;;10.57;88.78;100543.06;5037412;28;20074;-73
2021/01/28 01:29:28;;;;;;;4.35;1.90;;;;;;;10.73;88.67;100536.00;5048082;28;20041;-71
2021/01/28 01:32:01;;;;;;;2.42;1.30;;;;;;;10.78;88.48;100540.56;5074687;28;20055;-72
2021/01/28 01:34:35;;;;;;;2.50;1.15;;;;;;;10.81;88.28;100546.25;5073193;28;20056;-73
2021/01/28 01:37:06;;;;;;;3.83;1.20;;;;;;;10.87;87.94;100533.97;5040653;28;20049;-73
2021/01/28 01:39:37;;;;;;;1.50;1.20;;;;;;;10.79;88.27;100543.00;5038398;28;20404;-72
2021/01/28 01:42:08;;;;;;;2.20;1.35;;;;;;;11.04;87.64;100535.94;5071445;28;20062;-72
2021/01/28 01:44:38;;;;;;;2.20;1.25;;;;;;;10.89;87.94;100528.94;5059930;28;20060;-73
2021/01/28 01:47:44;;;;;;;2.78;1.50;;;;;;;11.04;88.10;100524.91;5069353;28;20032;-73
2021/01/28 01:50:25;;;;;;;2.10;1.30;;;;;;;10.85;87.88;100518.88;5043868;28;20395;-73
2021/01/28 01:52:53;;;;;;;1.55;1.05;;;;;;;10.98;87.88;100515.97;5073584;28;20049;-72
2021/01/28 01:55:20;;;;;;;1.50;1.05;;;;;;;10.92;87.93;100511.75;5072642;28;20071;-75
2021/01/28 01:58:10;;;;;;;1.80;1.13;;;;;;;10.93;87.94;100510.63;5072833;28;20404;-72
2021/01/28 02:00:58;;;;;;;1.95;1.15;;;;;;;10.73;88.76;100499.38;5040084;28;20049;-74
2021/01/28 02:03:33;;;;;;;2.75;1.27;;;;;;;10.81;89.18;100496.66;5046637;28;20495;-75
2021/01/28 02:06:48;;;;;;;2.42;1.10;;;;;;;10.73;89.46;100493.88;5014029;28;20052;-72
2021/01/28 02:09:28;;;;;;;1.85;1.17;;;;;;;10.71;89.73;100471.34;4943805;29;20047;-71
2021/01/28 02:12:09;;;;;;;2.08;1.15;;;;;;;10.87;89.48;100461.50;4937902;29;20055;-74
2021/01/28 02:14:57;;;;;;;2.92;1.00;;;;;;;10.80;89.80;100448.19;4954636;28;20151;-73
2021/01/28 02:17:42;;;;;;;2.05;1.30;;;;;;;10.88;89.73;100441.88;4954753;28;20063;-72
2021/01/28 02:20:53;;;;;;;1.27;0.90;;;;;;;11.31;87.89;100430.91;4937226;29;20058;-74
2021/01/28 02:23:33;;;;;;;2.10;1.10;;;;;;;11.16;87.80;100423.09;4896631;29;20041;-74
2021/01/28 02:26:04;;;;;;;5.15;1.35;;;;;;;11.26;88.20;100411.75;4880913;29;20045;-73
2021/01/28 02:28:32;;;;;;;1.88;1.00;;;;;;;11.32;87.26;100404.94;4881463;29;20175;-73
2021/01/28 02:31:03;;;;;;;1.50;0.88;;;;;;;11.11;88.53;100399.28;4880925;29;20064;-72
2021/01/28 02:33:43;;;;;;;3.05;1.40;;;;;;;11.16;88.62;100393.59;4895937;29;20589;-71
2021/01/28 02:36:53;;;;;;;1.77;1.05;;;;;;;11.17;88.91;100386.13;4830931;29;20067;-71
2021/01/28 02:39:50;;;;;;;4.13;1.52;;;;;;;11.10;89.21;100386.63;4807584;29;20058;-73
2021/01/28 02:42:30;;;;;;;3.88;1.70;;;;;;;11.18;89.05;100390.50;4822500;29;20415;-73
2021/01/28 02:45:09;;;;;;;4.00;2.22;;;;;;;11.15;89.21;100389.22;4822884;29;20054;-72
2021/01/28 02:47:58;;;;;;;5.30;2.80;;;;;;;11.12;89.71;100384.34;4880187;29;20052;-74
2021/01/28 02:50:44;;;;;;;6.22;3.22;;;;;;;11.19;89.84;100376.41;4883284;29;20067;-73
2021/01/28 02:53:14;;;;;;;6.22;3.30;;;;;;;11.21;89.57;100378.81;4882008;29;20056;-73
2021/01/28 02:55:49;;;;;;;6.80;3.90;;;;;;;11.27;89.53;100385.81;4881543;29;20071;-73
2021/01/28 02:58:17;;;;;;;7.72;5.18;;;;;;;11.33;89.37;100392.78;4945689;28;20042;-75
2021/01/28 03:00:58;;;;;;;7.45;4.55;;;;;;;11.27;89.08;100392.13;4972622;28;20047;-74
2021/01/28 03:03:27;;;;;;;7.55;4.78;;;;;;;11.26;89.77;100396.00;4971557;28;20154;-72
2021/01/28 03:05:57;;;;;;;8.40;5.15;;;;;;;11.28;89.71;100390.16;4956296;28;20046;-73
2021/01/28 03:08:26;;;;;;;8.50;5.65;;;;;;;11.22;90.41;100394.25;4965039;28;20051;-73
2021/01/28 03:11:12;;;;;;;8.82;5.63;;;;;;;11.29;90.05;100395.38;4988683;28;20061;-72
2021/01/28 03:13:41;;;;;;;16.25;6.85;;;;;;;11.25;90.29;100391.66;5015960;28;20045;-72
2021/01/28 03:16:37;;;;;;;13.32;7.22;;;;;;;11.38;89.80;100381.59;4963032;28;20054;-71
2021/01/28 03:19:18;;;;;;;9.50;6.47;;;;;;;11.54;88.93;100379.91;4955623;28;20047;-74
2021/01/28 03:21:45;;;;;;;10.23;6.40;;;;;;;11.48;89.61;100377.66;4955473;28;20414;-73
2021/01/28 03:24:27;;;;;;;10.00;6.72;;;;;;;11.47;89.00;100376.03;4971479;28;20296;-72
2021/01/28 03:27:04;;;;;;;12.18;6.75;;;;;;;11.46;89.83;100361.44;4955230;28;20055;-73
2021/01/28 03:29:31;;;;;;;12.38;6.88;;;;;;;11.85;88.29;100360.38;4971264;28;20062;-72
2021/01/28 03:32:00;;;;;;;11.20;6.80;;;;;;;11.64;88.43;100357.53;4940012;28;20054;-73
2021/01/28 03:34:27;;;;;;;10.32;6.28;;;;;;;11.58;89.10;100360.75;4972272;28;20503;-72
2021/01/28 03:36:55;;;;;;;11.85;7.13;;;;;;;11.63;89.41;100357.84;4923344;28;20046;-73
2021/01/28 03:39:26;;;;;;;16.63;7.55;;;;;;;11.62;89.65;100358.97;4956522;28;20047;-71
2021/01/28 03:41:54;;;;;;;11.02;7.13;;;;;;;11.70;89.56;100347.16;4972112;28;20073;-73
2021/01/28 03:44:21;;;;;;;12.70;7.78;;;;;;;11.72;89.47;100342.91;4971791;28;20061;-72
2021/01/28 03:46:51;;;;;;;11.93;7.90;;;;;;;11.68;90.00;100339.16;4956264;28;20502;-73
2021/01/28 03:49:25;;;;;;;11.77;7.82;;;;;;;11.73;89.05;100327.97;4972138;28;20058;-72
2021/01/28 03:52:06;;;;;;;12.00;7.43;;;;;;;11.73;89.61;100324.41;4979494;28;20054;-74
2021/01/28 03:54:56;;;;;;;11.38;7.25;;;;;;;11.52;90.05;100323.47;4972540;28;20058;-73
2021/01/28 03:57:33;;;;;;;12.40;7.88;;;;;;;11.59;90.36;100318.25;4982932;28;20069;-73
2021/01/28 04:00:19;;;;;;;12.50;7.07;;;;;;;11.70;90.39;100320.34;4955683;28;20550;-71
2021/01/28 04:03:18;;;;;;;12.70;7.75;;;;;;;11.89;89.59;100314.44;4940768;29;20051;-72
2021/01/28 04:06:05;;;;;;;10.77;7.30;;;;;;;11.99;87.85;100309.34;4971708;28;20885;-72
2021/01/28 04:08:54;;;;;;;13.05;7.90;;;;;;;11.84;89.36;100311.84;4975175;28;20495;-72
2021/01/28 04:11:45;;;;;;;11.20;7.22;;;;;;;12.01;88.94;100322.81;4974768;28;20509;-71
2021/01/28 04:14:35;;;;;;;15.98;7.95;;;;;;;12.07;88.41;100322.28;4991747;28;20046;-73
2021/01/28 04:17:14;;;;;;;11.40;7.43;;;;;;;11.87;88.73;100313.97;4958483;28;20065;-74
2021/01/28 04:19:47;;;;;;;10.35;7.43;;;;;;;12.03;88.53;100326.06;4975347;28;20059;-74
2021/01/28 04:22:14;;;;;;;10.70;6.97;;;;;;;12.04;88.40;100330.44;4981558;28;20502;-73
2021/01/28 04:24:48;;;;;;;13.68;7.40;;;;;;;12.07;88.43;100332.50;4963228;28;20043;-72
2021/01/28 04:27:18;;;;;;;10.82;6.40;;;;;;;12.20;87.96;100320.44;4992268;28;20054;-73
2021/01/28 04:29:55;;;;;;;11.05;7.00;;;;;;;12.19;88.15;100310.53;4958306;28;20058;-75
2021/01/28 04:32:29;;;;;;;10.00;6.32;;;;;;;12.14;88.02;100307.97;4997407;28;20060;-73
2021/01/28 04:35:15;;;;;;;9.00;5.78;;;;;;;12.14;88.71;100305.19;5055631;28;20064;-72
2021/01/28 04:37:44;;;;;;;8.73;5.65;;;;;;;12.11;89.06;100308.63;5018388;28;20049;-72
2021/01/28 04:40:37;;;;;;;7.28;4.68;;;;;;;12.10;89.04;100307.03;5034845;28;20389;-75
2021/01/28 04:43:30;;;;;;;8.50;4.78;;;;;;;12.09;89.67;100311.72;5048255;28;20048;-74
2021/01/28 04:46:38;;;;;;;8.80;5.22;;;;;;;12.04;90.01;100308.34;5013951;28;20080;-73
2021/01/28 04:49:27;;;;;;;7.30;4.28;;;;;;;12.17;89.32;100310.84;4979426;28;20414;-71
2021/01/28 04:52:15;;;;;;;7.10;4.10;;;;;;;12.15;89.93;100287.50;5000525;28;20089;-72
2021/01/28 04:54:54;;;;;;;10.20;4.28;;;;;;;12.27;88.82;100277.31;4998028;28;20049;-72
2021/01/28 04:57:32;;;;;;;7.00;3.88;;;;;;;12.27;88.79;100284.81;4978266;28;20512;-73
2021/01/28 04:59:59;;;;;;;6.22;3.20;;;;;;;12.03;89.46;100287.41;4961888;28;20046;-72
2021/01/28 05:02:31;;;;;;;6.70;3.30;;;;;;;11.99;90.34;100280.94;4969851;28;20069;-71
2021/01/28 05:05:18;;;;;;;7.20;3.90;;;;;;;12.14;90.11;100266.53;4983971;28;20499;-73
2021/01/28 05:08:28;;;;;;;6.15;3.10;;;;;;;12.10;89.99;100260.09;4975452;28;20050;-74
2021/01/28 05:11:25;;;;;;;6.30;2.75;;;;;;;12.33;88.83;100244.81;4949946;28;20065;-73
2021/01/28 05:14:20;;;;;;;6.30;2.58;;;;;;;12.44;87.57;100237.75;4988554;28;20493;-73
2021/01/28 05:16:55;;;;;;;4.93;2.28;;;;;;;12.38;88.46;100233.56;5012708;28;20054;-73
2021/01/28 05:19:37;;;;;;;5.25;2.53;;;;;;;12.33;88.99;100229.06;4993962;28;20051;-73
2021/01/28 05:22:32;;;;;;;5.50;2.53;;;;;;;12.28;88.96;100217.41;4984785;28;20049;-73
2021/01/28 05:25:41;;;;;;;5.97;2.28;;;;;;;12.50;88.70;100197.69;5013398;28;20057;-72
2021/01/28 05:28:37;;;;;;;6.45;2.38;;;;;;;12.61;87.20;100179.56;4998014;28;20414;-72
2021/01/28 05:31:30;;;;;;;5.78;2.00;;;;;;;12.36;88.08;100175.91;5012744;28;20494;-73
2021/01/28 05:34:26;;;;;;;3.22;1.73;;;;;;;12.19;89.06;100180.75;5013527;28;20053;-72
2021/01/28 05:37:05;;;;;;;3.42;1.65;;;;;;;12.13;90.15;100171.06;5014173;28;20943;-72
2021/01/28 05:39:43;;;;;;;3.03;1.70;;;;;;;12.06;90.52;100170.81;4997638;28;20058;-73
2021/01/28 05:42:27;;;;;;;4.60;1.65;;;;;;;12.13;90.49;100171.06;4996055;28;20501;-74
2021/01/28 05:45:27;;;;;;;3.33;1.63;;;;;;;12.20;90.28;100168.59;4999184;28;20046;-73
2021/01/28 05:48:29;;;;;;;4.75;1.77;;;;;;;12.13;90.42;100143.47;4972247;28;20427;-73
2021/01/28 05:51:20;;;;;;;4.13;1.50;;;;;;;12.24;90.03;100134.41;4959545;28;20066;-72
2021/01/28 05:54:03;;;;;;;3.90;1.52;;;;;;;12.22;89.90;100125.66;4940648;28;20054;-73
2021/01/28 05:56:58;;;;;;;5.35;1.45;;;;;;;12.14;90.68;100118.28;4942395;28;20078;-74
2021/01/28 05:59:55;;;;;;;;;;;;;;;12.27;90.08;100121.91;4973305;28;20077;-74
2021/01/28 06:02:33;;;;;;;5.03;1.70;;;;;;;12.34;89.84;100120.19;4955658;28;19929;-74
2021/01/28 06:05:47;;;;;;;2.42;1.10;;;;;;;12.16;89.98;100117.94;4956734;28;20058;-74
2021/01/28 06:08:27;;;;;;;5.05;1.23;;;;;;;12.32;89.69;100094.06;4972766;28;20127;-73
2021/01/28 06:11:47;;;;;;;3.58;1.30;;;;;;;12.32;89.28;100074.75;4971773;28;20046;-75
2021/01/28 06:14:53;;;;;;;7.10;3.00;;;;;;;12.26;89.92;100085.19;4953781;28;20059;-75
2021/01/28 06:18:09;;;;;;;6.07;1.45;;;;;;;12.30;89.33;100099.94;4958960;28;20058;-74
2021/01/28 06:20:59;;;;;;;5.82;1.65;;;;;;;12.19;90.02;100084.13;4969484;28;20043;-73
2021/01/28 06:23:44;;;;;;;5.78;2.80;;;;;;;12.19;90.08;100097.91;4958370;28;20057;-72
2021/01/28 06:26:32;;;;;;;1.50;0.70;;;;;;;12.13;88.83;100088.25;5012231;28;20057;-73
2021/01/28 06:29:31;;;;;;;2.35;0.70;;;;;;;12.09;89.77;100084.53;4979802;28;20050;-72
2021/01/28 06:32:21;;;;;;;3.70;1.02;;;;;;;12.06;89.87;100094.31;5011516;28;20469;-73
2021/01/28 06:35:10;;;;;;;;;;;;;;;12.11;90.14;100090.53;4993320;28;20058;-73
2021/01/28 06:38:32;;;;;;;1.63;0.63;;;;;;;12.07;90.09;100100.63;4994434;28;19922;-72
2021/01/28 06:41:47;;;;;;;4.05;0.90;;;;;;;12.20;89.84;100108.63;4983879;28;20061;-72
2021/01/28 06:44:34;;;;;;;0.95;0.68;;;;;;;12.17;89.43;100101.03;4978049;28;20050;-73
2021/01/28 06:47:30;;;;;;;6.72;0.70;;;;;;;12.26;90.03;100112.81;4988223;28;20046;-73
2021/01/28 06:50:22;;;;;;;3.65;0.73;;;;;;;12.21;89.59;100106.69;4995103;28;20452;-74
2021/01/28 06:53:02;;;;;;;4.25;0.77;;;;;;;12.19;90.43;100104.25;4991693;28;20165;-74
2021/01/28 06:56:01;;;;;;;3.10;0.90;;;;;;;12.40;89.08;100101.47;4991540;28;20054;-72
2021/01/28 06:59:26;;;;;;;3.33;0.90;;;;;;;12.27;89.40;100097.06;4991632;28;20446;-73
2021/01/28 07:02:06;;;;;;;2.75;0.75;;;;;;;12.21;89.73;100096.44;4995003;28;20405;-74
2021/01/28 07:05:11;;;;;;;3.78;1.25;;;;;;;12.27;90.08;100108.88;4996701;28;20078;-72
2021/01/28 07:07:51;;;;;;;2.83;0.50;;;;;;;12.20;90.13;100096.78;4994230;28;20050;-72
2021/01/28 07:10:41;;;;;;;2.67;0.80;;;;;;;12.33;89.48;100073.59;4995819;28;20100;-73
2021/01/28 07:13:28;;;;;;;5.50;0.90;;;;;;;12.24;90.16;100081.97;4994278;28;20456;-74
2021/01/28 07:16:20;;;;;;;1.37;0.50;;;;;;;12.19;89.99;100125.53;4996709;28;20057;-73
2021/01/28 07:18:50;;;;;;;2.80;0.63;;;;;;;12.10;90.95;100102.75;5013918;28;20300;-73
2021/01/28 07:21:33;;;;;;;2.00;0.60;;;;;;;12.50;90.09;100089.19;5030820;28;20046;-72
2021/01/28 07:24:27;;;;;;;5.67;1.07;;;;;;;12.42;89.32;100108.25;5031262;28;20045;-74
2021/01/28 07:27:00;;;;;;;1.27;0.40;;;;;;;12.08;90.73;100119.63;5030563;28;20054;-74
2021/01/28 07:29:27;;;;;;;2.38;0.52;;;;;;;12.20;92.68;100125.19;5031750;28;20053;-72
2021/01/28 07:31:54;;;;;;;1.77;0.47;;;;;;;12.20;92.03;100125.19;5031761;28;20041;-73
2021/01/28 07:34:31;;;;;;;4.20;0.90;;;;;;;12.13;93.06;100130.44;5029681;28;20068;-70
2021/01/28 07:37:18;;;;;;;6.40;1.35;;;;;;;12.33;93.32;100115.00;5013987;28;20538;-72
2021/01/28 07:40:04;;;;;;;3.05;1.00;;;;;;;12.28;94.54;100113.28;5031392;28;20054;-72
2021/01/28 07:43:01;;;;;;;2.03;0.70;;;;;;;12.31;93.31;100109.00;5030278;28;20041;-75
2021/01/28 07:46:28;;;;;;;2.13;0.40;;;;;;;12.23;91.70;100112.66;4991193;28;20502;-74
2021/01/28 07:49:17;;;;;;;3.33;0.60;;;;;;;12.10;92.58;100125.59;4974550;28;20054;-72
2021/01/28 07:52:03;;;;;;;1.55;0.45;;;;;;;12.03;92.73;100113.50;4972664;28;20059;-73
2021/01/28 07:54:30;;;;;;;3.38;0.70;;;;;;;12.06;92.99;100130.22;4974207;28;20055;-71
2021/01/28 07:57:29;;;;;;;1.80;0.52;;;;;;;12.12;93.20;100133.56;4992983;28;20113;-71
2021/01/28 08:00:05;;;;;;;2.00;0.80;;;;;;;12.17;92.63;100136.91;4992628;28;20053;-75
2021/01/28 08:02:41;;;;;;;3.15;1.23;;;;;;;12.45;93.90;100137.16;4974520;28;20050;-74
2021/01/28 08:05:17;;;;;;;4.93;0.90;;;;;;;12.72;93.06;100130.22;4972608;28;20434;-72
2021/01/28 08:07:48;;;;;;;2.38;0.90;;;;;;;12.88;92.74;100125.66;4956214;28;20055;-73
2021/01/28 08:10:35;;;;;;;2.72;0.93;;;;;;;12.61;90.77;100135.38;4963389;28;20043;-73
2021/01/28 08:13:20;;;;;;;3.28;1.17;;;;;;;12.73;91.40;100123.53;4964436;28;20042;-73
2021/01/28 08:16:06;;;;;;;4.07;0.70;;;;;;;12.73;89.92;100142.88;4982136;28;20418;-73
2021/01/28 08:18:36;;;;;;;2.67;0.50;;;;;;;12.70;89.71;100138.84;4972450;28;20054;-74
2021/01/28 08:21:22;;;;;;;2.65;0.60;;;;;;;12.57;89.85;100142.72;4958529;28;20067;-73
2021/01/28 08:23:50;;;;;;;3.05;0.85;;;;;;;12.71;90.53;100142.44;5003305;28;20056;-72
2021/01/28 08:26:30;;;;;;;1.80;0.50;;;;;;;12.73;89.40;100140.09;5033927;28;20049;-74
2021/01/28 08:29:07;;;;;;;2.95;0.60;;;;;;;12.77;89.62;100139.09;5015784;28;20527;-73
2021/01/28 08:31:41;;;;;;;0.30;0.28;;;;;;;12.78;88.92;100140.69;5024312;28;20049;-73
2021/01/28 08:34:14;;;;;;;4.80;1.25;;;;;;;12.95;89.99;100148.81;5033301;28;20172;-73
2021/01/28 08:37:05;;;;;;;2.53;0.40;;;;;;;12.78;88.27;100173.88;5028610;28;20389;-73
2021/01/28 08:39:35;;;;;;;0.88;0.50;;;;;;;12.79;90.25;100172.72;5033273;28;20076;-74
2021/01/28 08:42:03;;;;;;;2.17;0.50;;;;;;;12.80;88.82;100185.38;5034953;28;20061;-73
2021/01/28 08:44:31;;;;;;;1.73;0.47;;;;;;;12.86;89.66;100184.03;5016572;28;20404;-76
2021/01/28 08:47:15;;;;;;;2.47;0.40;;;;;;;12.86;88.76;100184.03;5028413;28;20069;-73
2021/01/28 08:49:44;;;;;;;2.05;0.70;;;;;;;12.81;88.79;100188.97;5017640;28;20421;-74
2021/01/28 08:52:17;;;;;;;1.60;0.47;;;;;;;12.78;88.87;100195.19;5033727;28;20427;-74
2021/01/28 08:54:45;;;;;;;1.98;0.60;;;;;;;12.85;90.65;100179.66;5029057;28;20054;-72
2021/01/28 08:57:18;;;;;;;1.92;0.40;;;;;;;12.74;89.26;100192.28;5031626;28;20460;-75
2021/01/28 08:59:57;;;;;;;1.27;0.50;;;;;;;12.78;89.43;100201.50;5033965;28;20045;-74
2021/01/28 09:02:34;;;;;;;1.00;0.52;;;;;;;12.70;90.34;100190.53;5035409;28;20061;-74
2021/01/28 09:05:15;;;;;;;3.58;0.60;;;;;;;12.68;90.38;100201.94;5031429;28;20050;-71
2021/01/28 09:07:52;;;;;;;3.58;0.57;;;;;;;13.00;90.51;100209.41;4997254;28;20132;-72
2021/01/28 09:10:37;;;;;;;2.00;0.30;;;;;;;12.74;90.72;100208.88;5034476;28;20045;-73
2021/01/28 09:13:18;;;;;;;1.63;0.47;;;;;;;12.70;91.75;100213.47;5030441;28;20045;-72
2021/01/28 09:16:11;;;;;;;2.75;0.65;;;;;;;12.68;92.27;100210.22;5024540;28;20052;-72
2021/01/28 09:19:09;;;;;;;1.60;0.60;;;;;;;12.80;91.81;100218.56;4990133;28;20480;-72
2021/01/28 09:21:40;;;;;;;1.85;0.57;;;;;;;12.87;91.07;100223.53;5038318;28;20053;-73
2021/01/28 09:24:21;;;;;;;1.63;0.70;;;;;;;13.01;89.99;100221.25;5027754;28;20056;-74
2021/01/28 09:27:30;;;;;;;1.30;0.50;;;;;;;12.93;89.81;100227.72;5030292;28;20512;-75
2021/01/28 09:30:10;;;;;;;1.30;0.50;;;;;;;13.07;89.32;100226.28;5017532;28;20050;-73
2021/01/28 09:33:32;;;;;;;1.63;0.60;;;;;;;12.90;89.98;100214.56;5002830;28;20049;-77
2021/01/28 09:36:29;;;;;;;2.20;0.50;;;;;;;13.01;90.48;100213.78;5031164;28;20421;-74
2021/01/28 09:39:07;;;;;;;1.60;0.50;;;;;;;13.14;88.67;100214.66;5031507;28;20048;-72
2021/01/28 09:41:43;;;;;;;1.00;0.60;;;;;;;12.99;88.77;100226.34;5043154;28;20058;-75
2021/01/28 09:44:31;;;;;;;1.23;0.50;;;;;;;13.04;87.72;100232.47;5016982;28;20068;-77
2021/01/28 09:47:13;;;;;;;2.47;0.60;;;;;;;13.00;88.01;100226.00;5039730;28;20424;-76
2021/01/28 09:49:41;;;;;;;3.15;0.40;;;;;;;13.03;88.05;100230.88;5016475;28;20049;-71
2021/01/28 09:52:41;;;;;;;0.40;0.25;;;;;;;13.03;87.69;100228.13;5033564;28;20061;-76
2021/01/28 09:55:11;;;;;;;1.10;0.40;;;;;;;13.02;87.22;100229.25;5001499;28;20050;-75
2021/01/28 09:57:38;;;;;;;5.22;0.60;;;;;;;13.14;86.89;100234.84;5051771;28;20378;-77
2021/01/28 10:00:09;;;;;;;1.10;0.45;;;;;;;13.10;86.71;100233.91;5019176;28;20055;-76
2021/01/28 10:02:56;;;;;;;2.63;0.50;;;;;;;13.48;85.15;100237.19;5038226;28;20392;-79
2021/01/28 10:05:26;;;;;;;1.63;0.50;;;;;;;13.29;85.13;100245.22;5052999;28;20045;-72
2021/01/28 10:07:54;;;;;;;3.45;0.70;;;;;;;13.32;84.78;100247.31;5041187;28;20505;-77
2021/01/28 10:10:23;;;;;;;1.95;0.50;;;;;;;13.51;84.28;100255.88;5016074;28;20045;-76
2021/01/28 10:12:53;;;;;;;3.65;1.00;;;;;;;13.45;84.66;100261.97;5044701;28;20059;-77
2021/01/28 10:15:21;;;;;;;1.77;0.80;;;;;;;13.41;84.53;100261.84;5041280;28;20481;-74
2021/01/28 10:17:48;;;;;;;1.88;0.50;;;;;;;13.53;84.09;100261.88;5048904;28;20303;-70
2021/01/28 10:20:15;;;;;;;1.67;0.60;;;;;;;13.88;82.93;100262.22;5027391;28;20054;-75
2021/01/28 10:22:44;;;;;;;2.58;0.73;;;;;;;13.91;81.97;100255.19;5043620;28;20049;-72
2021/01/28 10:25:14;;;;;;;3.20;1.02;;;;;;;13.87;81.92;100262.56;5050908;28;20507;-75
2021/01/28 10:27:41;;;;;;;3.30;0.63;;;;;;;13.78;81.97;100272.94;5031720;28;20040;-71
2021/01/28 10:30:10;;;;;;;4.40;0.80;;;;;;;13.67;82.59;100277.34;5052854;28;20049;-74
2021/01/28 10:32:37;;;;;;;4.57;0.80;;;;;;;13.77;82.01;100269.41;5035413;28;20500;-75
2021/01/28 10:35:05;;;;;;;5.63;0.95;;;;;;;13.61;82.18;100282.28;5051440;28;20045;-75
2021/01/28 10:37:32;;;;;;;3.10;1.13;;;;;;;13.70;81.68;100280.22;5052638;28;20056;-77
2021/01/28 10:39:59;;;;;;;4.00;1.00;;;;;;;13.79;81.84;100278.13;5031716;28;20048;-74
2021/01/28 10:42:32;;;;;;;2.70;0.70;;;;;;;13.71;81.69;100275.47;5049928;28;20476;-76
2021/01/28 10:44:59;;;;;;;2.65;0.90;;;;;;;13.67;81.66;100280.91;5026695;28;20060;-73
2021/01/28 10:47:27;;;;;;;4.20;0.80;;;;;;;13.78;81.00;100284.03;5010133;28;20042;-73
2021/01/28 10:50:10;;;;;;;7.10;1.60;;;;;;;13.76;81.11;100284.38;5008079;28;20057;-71
2021/01/28 10:52:37;;;;;;;5.65;1.10;;;;;;;13.89;80.07;100283.25;5020400;28;20049;-74
2021/01/28 10:55:18;;;;;;;3.65;1.10;;;;;;;13.80;80.36;100287.25;5031105;28;20349;-74
2021/01/28 10:57:45;;;;;;;7.45;1.40;;;;;;;13.86;80.18;100283.91;5017254;28;20062;-74
2021/01/28 11:00:13;;;;;;;5.97;1.35;;;;;;;14.06;79.67;100284.94;5025572;28;20041;-75
2021/01/28 11:02:40;;;;;;;3.85;1.08;;;;;;;13.86;79.69;100294.19;5030793;28;20053;-75
2021/01/28 11:05:13;;;;;;;6.95;1.63;;;;;;;13.85;80.09;100296.16;5017428;28;20394;-72
2021/01/28 11:07:40;;;;;;;6.40;1.52;;;;;;;13.74;81.04;100300.50;5014062;28;20057;-74
2021/01/28 11:10:07;;;;;;;9.35;1.52;;;;;;;13.97;80.26;100285.06;5030600;28;20052;-77
2021/01/28 11:12:34;;;;;;;6.15;1.10;;;;;;;13.73;80.54;100296.13;5028965;28;20125;-72
2021/01/28 11:15:03;;;;;;;6.32;1.77;;;;;;;13.70;80.88;100307.09;5025006;28;20389;-77
2021/01/28 11:17:30;;;;;;;6.50;1.15;;;;;;;13.72;80.87;100305.56;5045527;28;20065;-76
2021/01/28 11:19:57;;;;;;;4.88;1.10;;;;;;;13.71;80.68;100301.22;5031328;28;20056;-77
2021/01/28 11:22:24;;;;;;;6.50;1.45;;;;;;;13.71;81.05;100306.75;5031146;28;20046;-75
2021/01/28 11:24:51;;;;;;;9.27;1.52;;;;;;;13.66;81.21;100300.63;5030933;28;20069;-76
2021/01/28 11:27:18;;;;;;;5.75;1.20;;;;;;;13.93;80.84;100303.53;5030615;28;20041;-74
2021/01/28 11:29:45;;;;;;;5.90;1.20;;;;;;;13.83;80.83;100320.59;5020216;28;20057;-74
2021/01/28 11:32:12;;;;;;;4.32;1.40;;;;;;;13.89;80.32;100313.69;5029544;28;20049;-75
2021/01/28 11:34:42;;;;;;;8.63;1.63;;;;;;;13.75;82.22;100317.94;5010343;28;20042;-75
2021/01/28 11:37:11;;;;;;;4.93;1.50;;;;;;;13.87;81.55;100315.19;5014423;28;20060;-74
2021/01/28 11:39:38;;;;;;;4.35;1.10;;;;;;;13.83;82.51;100323.38;5030500;28;20061;-74
2021/01/28 11:42:05;;;;;;;5.30;1.33;;;;;;;13.72;83.86;100324.94;5031888;28;20068;-73
2021/01/28 11:44:32;;;;;;;4.82;1.30;;;;;;;13.66;84.37;100322.75;5025061;28;20488;-76
2021/01/28 11:46:59;;;;;;;7.55;1.95;;;;;;;13.64;84.35;100314.00;5037994;28;20380;-76
2021/01/28 11:49:26;;;;;;;5.82;1.38;;;;;;;13.61;84.05;100321.03;5052266;28;20048;-75
2021/01/28 11:51:53;;;;;;;3.92;1.17;;;;;;;13.53;85.28;100317.22;5051346;28;20041;-76
2021/01/28 11:54:20;;;;;;;4.60;1.20;;;;;;;13.82;84.38;100332.03;5032660;28;20041;-74
2021/01/28 11:56:48;;;;;;;6.25;1.10;;;;;;;13.86;83.92;100319.91;5034745;28;20480;-76
2021/01/28 11:59:15;;;;;;;6.05;1.33;;;;;;;14.00;82.91;100327.91;5040634;28;20056;-73
2021/01/28 12:01:42;;;;;;;4.25;0.90;;;;;;;13.89;82.62;100329.50;5030106;28;20401;-74
2021/01/28 12:04:09;;;;;;;7.70;1.42;;;;;;;13.76;83.20;100344.44;5050532;28;20064;-74
2021/01/28 12:06:39;;;;;;;2.80;1.00;;;;;;;13.66;84.27;100340.19;5036640;28;20053;-72
2021/01/28 12:09:06;;;;;;;4.20;1.20;;;;;;;13.60;84.92;100335.22;5031621;28;20072;-75
2021/01/28 12:11:33;;;;;;;3.95;1.10;;;;;;;13.70;84.38;100337.53;5050616;28;20218;-73
2021/01/28 12:14:00;;;;;;;2.50;0.95;;;;;;;13.76;83.63;100330.63;5045909;28;20045;-74
2021/01/28 12:16:28;;;;;;;3.30;1.00;;;;;;;13.75;83.48;100324.28;5019987;28;20049;-76
2021/01/28 12:18:55;;;;;;;2.85;1.25;;;;;;;13.79;82.73;100303.06;5041368;28;20045;-74